createdAt,value
2018-09-12T00:02:19.352Z,14.00
2018-09-12T00:04:48.938Z,13.07
2018-09-12T00:07:18.054Z,12.23
2018-09-12T00:09:47.170Z,17.70
2018-09-12T00:12:17.158Z,14.73
2018-09-12T00:14:47.243Z,16.27
2018-09-12T00:17:17.000Z,16.30
2018-09-12T00:19:46.599Z,17.10
2018-09-12T00:22:16.104Z,17.93
2018-09-12T00:24:45.159Z,17.17
2018-09-12T00:27:14.326Z,15.90
2018-09-12T00:29:43.501Z,13.37
2018-09-12T00:32:12.763Z,21.97
2018-09-12T00:34:41.901Z,17.00
2018-09-12T00:37:11.811Z,17.07
2018-09-12T00:39:47.702Z,18.23
2018-09-12T00:42:16.841Z,16.20
2018-09-12T00:44:46.066Z,11.63
2018-09-12T00:47:15.211Z,15.73
2018-09-12T00:49:45.152Z,11.00
2018-09-12T00:52:14.367Z,12.30
2018-09-12T00:54:45.062Z,10.60
2018-09-12T00:57:15.310Z,16.33
2018-09-12T00:59:44.426Z,13.77
2018-09-12T01:02:13.607Z,12.13
2018-09-12T01:04:43.423Z,16.17
2018-09-12T01:07:12.584Z,12.60
2018-09-12T01:09:41.782Z,15.07
2018-09-12T01:12:11.272Z,9.80
2018-09-12T01:14:40.496Z,12.17
2018-09-12T01:17:10.335Z,12.40
2018-09-12T01:19:39.487Z,15.70
2018-09-12T01:22:09.226Z,11.90
2018-09-12T01:24:38.473Z,15.53
2018-09-12T01:27:08.086Z,10.90
2018-09-12T01:29:37.303Z,12.53
2018-09-12T01:32:06.501Z,11.93
2018-09-12T01:34:35.742Z,13.47
2018-09-12T01:37:05.267Z,12.40
2018-09-12T01:39:34.493Z,15.13
2018-09-12T01:42:03.231Z,15.30
2018-09-12T01:44:32.372Z,19.60
2018-09-12T01:47:01.508Z,12.70
2018-09-12T01:49:30.672Z,13.00
2018-09-12T01:51:59.842Z,13.80
2018-09-12T01:54:28.981Z,11.30
2018-09-12T01:56:58.102Z,10.30
2018-09-12T01:59:27.226Z,11.17
2018-09-12T02:01:56.416Z,10.33
2018-09-12T02:04:25.575Z,13.73
2018-09-12T02:06:54.739Z,12.20
2018-09-12T02:09:23.887Z,12.73
2018-09-12T02:11:53.047Z,11.97
2018-09-12T02:14:22.162Z,11.37
2018-09-12T02:16:51.280Z,14.23
2018-09-12T02:19:20.397Z,11.53
2018-09-12T02:21:50.462Z,11.60
2018-09-12T02:24:20.449Z,19.07
2018-09-12T02:26:49.546Z,12.93
2018-09-12T02:29:18.736Z,16.47
2018-09-12T02:31:48.333Z,15.30
2018-09-12T02:34:17.958Z,12.80
2018-09-12T02:36:46.751Z,14.53
2018-09-12T02:39:16.436Z,11.10
2018-09-12T02:41:45.571Z,12.60
2018-09-12T02:44:14.757Z,17.47
2018-09-12T02:46:43.866Z,12.37
2018-09-12T02:49:12.997Z,11.13
2018-09-12T02:51:42.118Z,13.47
2018-09-12T02:54:11.276Z,13.33
2018-09-12T02:56:41.141Z,16.40
2018-09-12T02:59:10.310Z,12.00
2018-09-12T03:01:39.398Z,12.47
2018-09-12T03:04:09.979Z,12.87
2018-09-12T03:06:39.506Z,19.93
2018-09-12T03:09:09.482Z,20.93
2018-09-12T03:11:38.651Z,12.50
2018-09-12T03:14:07.794Z,12.90
2018-09-12T03:16:37.569Z,12.63
2018-09-12T03:19:06.705Z,11.33
2018-09-12T03:21:35.787Z,11.93
2018-09-12T03:24:05.320Z,15.10
2018-09-12T03:26:34.461Z,11.10
2018-09-12T03:29:03.750Z,15.60
2018-09-12T03:31:33.017Z,14.20
2018-09-12T03:34:02.405Z,11.90
2018-09-12T03:36:31.553Z,13.00
2018-09-12T03:39:00.665Z,13.27
2018-09-12T03:41:29.837Z,15.37
2018-09-12T03:43:58.913Z,16.50
2018-09-12T03:46:28.500Z,13.37
2018-09-12T03:48:57.631Z,18.03
2018-09-12T03:51:26.738Z,17.27
2018-09-12T03:53:55.839Z,12.90
2018-09-12T03:56:24.978Z,15.90
2018-09-12T03:58:54.064Z,15.40
2018-09-12T04:01:23.166Z,19.53
2018-09-12T04:03:52.490Z,14.43
2018-09-12T04:06:21.954Z,17.10
2018-09-12T04:08:51.053Z,15.00
2018-09-12T04:11:20.214Z,14.10
2018-09-12T04:13:49.478Z,15.37
2018-09-12T04:16:18.596Z,14.33
2018-09-12T04:18:47.786Z,25.40
2018-09-12T04:21:16.979Z,14.87
2018-09-12T04:23:46.146Z,16.70
2018-09-12T04:26:15.355Z,16.10
2018-09-12T04:28:45.134Z,16.00
2018-09-12T04:31:14.256Z,16.13
2018-09-12T04:33:43.857Z,13.87
2018-09-12T04:36:12.996Z,13.43
2018-09-12T04:38:42.138Z,14.60
2018-09-12T04:41:11.311Z,16.67
2018-09-12T04:43:40.409Z,14.80
2018-09-12T04:46:09.541Z,16.50
2018-09-12T04:48:38.753Z,18.20
2018-09-12T04:51:07.774Z,16.20
2018-09-12T04:53:36.907Z,19.83
2018-09-12T04:56:06.049Z,19.70
2018-09-12T04:58:35.183Z,17.23
2018-09-12T05:01:04.358Z,20.80
2018-09-12T05:03:33.490Z,17.23
2018-09-12T05:06:03.253Z,17.90
2018-09-12T05:08:32.386Z,19.33
2018-09-12T05:11:01.574Z,19.20
2018-09-12T05:13:31.466Z,15.57
2018-09-12T05:16:00.705Z,15.80
2018-09-12T05:18:29.726Z,16.00
2018-09-12T05:20:58.897Z,21.33
2018-09-12T05:23:28.449Z,18.47
2018-09-12T05:25:57.774Z,19.33
2018-09-12T05:28:27.395Z,34.47
2018-09-12T05:30:57.175Z,25.33
2018-09-12T05:33:26.144Z,16.50
2018-09-12T05:35:55.366Z,20.37
2018-09-12T05:38:24.606Z,17.53
2018-09-12T05:40:53.986Z,16.13
2018-09-12T05:43:23.098Z,16.17
2018-09-12T05:45:52.239Z,18.30
2018-09-12T05:48:21.362Z,17.60
2018-09-12T05:50:50.482Z,15.80
2018-09-12T05:53:20.229Z,13.50
2018-09-12T05:55:49.386Z,15.00
2018-09-12T05:58:18.522Z,15.67
2018-09-12T06:00:47.669Z,15.53
2018-09-12T06:03:16.861Z,14.53
2018-09-12T06:05:45.970Z,13.70
2018-09-12T06:08:15.099Z,14.27
2018-09-12T06:10:44.202Z,20.53
2018-09-12T06:13:13.446Z,17.00
2018-09-12T06:15:42.574Z,11.87
2018-09-12T06:18:11.679Z,11.67
2018-09-12T06:20:40.793Z,12.93
2018-09-12T06:23:09.925Z,12.00
2018-09-12T06:25:39.237Z,13.07
2018-09-12T06:28:08.138Z,16.40
2018-09-12T06:30:37.672Z,14.03
2018-09-12T06:33:06.797Z,11.87
2018-09-12T06:35:36.718Z,12.97
2018-09-12T06:38:05.905Z,15.00
2018-09-12T06:40:35.001Z,16.60
2018-09-12T06:43:04.140Z,13.90
2018-09-12T06:45:33.673Z,12.03
2018-09-12T06:48:02.816Z,19.53
2018-09-12T06:50:31.939Z,14.30
2018-09-12T06:53:01.062Z,15.70
2018-09-12T06:55:30.177Z,18.70
2018-09-12T06:57:59.329Z,15.90
2018-09-12T07:00:28.494Z,13.40
2018-09-12T07:02:57.549Z,13.33
2018-09-12T07:05:26.673Z,14.90
2018-09-12T07:07:55.771Z,19.43
2018-09-12T07:10:24.895Z,11.83
2018-09-12T07:12:53.997Z,12.93
2018-09-12T07:15:23.094Z,11.17
2018-09-12T07:17:52.606Z,17.40
2018-09-12T07:20:21.778Z,15.67
2018-09-12T07:22:50.917Z,12.83
2018-09-12T07:25:20.066Z,14.70
2018-09-12T07:27:49.402Z,15.13
2018-09-12T07:30:18.736Z,18.97
2018-09-12T07:32:47.810Z,19.73
2018-09-12T07:35:16.946Z,16.43
2018-09-12T07:37:46.086Z,10.90
2018-09-12T07:40:15.356Z,11.27
2018-09-12T07:42:44.514Z,13.90
2018-09-12T07:45:13.618Z,15.77
2018-09-12T07:47:42.879Z,15.10
2018-09-12T07:50:12.563Z,13.63
2018-09-12T07:52:41.678Z,12.67
2018-09-12T07:55:10.543Z,16.63
2018-09-12T07:57:39.659Z,12.70
2018-09-12T08:00:08.886Z,18.83
2018-09-12T08:02:37.866Z,12.83
2018-09-12T08:05:08.329Z,13.10
2018-09-12T08:07:37.394Z,14.33
2018-09-12T08:10:07.038Z,12.53
2018-09-12T08:12:36.184Z,19.77
2018-09-12T08:15:05.323Z,17.50
2018-09-12T08:17:34.433Z,19.17
2018-09-12T08:20:03.606Z,13.00
2018-09-12T08:22:32.755Z,11.90
2018-09-12T08:25:01.903Z,21.40
2018-09-12T08:27:31.018Z,12.37
2018-09-12T08:30:00.231Z,18.03
2018-09-12T08:32:29.369Z,14.23
2018-09-12T08:34:58.482Z,20.97
2018-09-12T08:37:27.600Z,12.60
2018-09-12T08:39:56.734Z,13.20
2018-09-12T08:42:26.063Z,13.70
2018-09-12T08:44:55.207Z,18.83
2018-09-12T08:47:24.443Z,14.93
2018-09-12T08:49:53.607Z,11.27
2018-09-12T08:52:22.818Z,9.17
2018-09-12T08:54:52.056Z,12.47
2018-09-12T08:57:21.243Z,14.17
2018-09-12T08:59:50.946Z,12.80
2018-09-12T09:02:20.478Z,12.73
2018-09-12T09:04:49.695Z,10.83
2018-09-12T09:07:18.970Z,8.67
2018-09-12T09:09:47.713Z,13.43
2018-09-12T09:12:16.832Z,9.17
2018-09-12T09:14:45.953Z,13.07
2018-09-12T09:17:15.550Z,8.33
2018-09-12T09:19:44.650Z,8.00
2018-09-12T09:22:13.791Z,11.17
2018-09-12T09:24:43.098Z,10.57
2018-09-12T09:27:12.206Z,9.17
2018-09-12T09:29:41.346Z,19.67
2018-09-12T09:32:11.662Z,14.23
2018-09-12T09:34:40.915Z,10.47
2018-09-12T09:37:10.066Z,10.53
2018-09-12T09:39:39.238Z,12.97
2018-09-12T09:42:08.403Z,11.93
2018-09-12T09:44:38.084Z,12.03
2018-09-12T09:47:07.298Z,13.97
2018-09-12T09:49:37.044Z,9.77
2018-09-12T09:52:06.420Z,10.87
2018-09-12T09:54:36.141Z,11.47
2018-09-12T09:57:06.541Z,11.77
2018-09-12T09:59:36.078Z,11.20
2018-09-12T10:02:10.498Z,8.20
2018-09-12T10:04:45.289Z,9.80
2018-09-12T10:07:19.801Z,8.33
2018-09-12T10:09:52.424Z,8.43
2018-09-12T10:12:21.794Z,8.90
2018-09-12T10:14:50.886Z,11.87
2018-09-12T10:17:20.010Z,9.30
2018-09-12T10:19:49.152Z,8.90
2018-09-12T10:22:18.266Z,10.33
2018-09-12T10:24:47.350Z,9.13
2018-09-12T10:27:16.461Z,8.93
2018-09-12T10:29:45.542Z,9.30
2018-09-12T10:32:14.674Z,10.63
2018-09-12T10:34:45.134Z,8.77
2018-09-12T10:37:15.691Z,12.53
2018-09-12T10:39:44.793Z,8.87
2018-09-12T10:42:14.001Z,14.87
2018-09-12T10:44:44.652Z,7.50
2018-09-12T10:47:13.829Z,7.87
2018-09-12T10:49:42.636Z,9.40
2018-09-12T10:52:12.222Z,7.60
2018-09-12T10:54:41.970Z,7.03
2018-09-12T10:57:11.211Z,8.70
2018-09-12T10:59:40.627Z,9.27
2018-09-12T11:02:10.115Z,7.27
2018-09-12T11:04:39.235Z,7.23
2018-09-12T11:07:08.381Z,14.90
2018-09-12T11:09:37.503Z,8.17
2018-09-12T11:12:06.654Z,8.17
2018-09-12T11:14:35.832Z,12.80
2018-09-12T11:17:04.922Z,13.57
2018-09-12T11:19:34.050Z,13.50
2018-09-12T11:22:03.726Z,10.60
2018-09-12T11:24:32.894Z,7.27
2018-09-12T11:27:02.262Z,9.37
2018-09-12T11:29:31.397Z,8.17
2018-09-12T11:32:00.497Z,9.63
2018-09-12T11:34:29.583Z,7.23
2018-09-12T11:36:58.682Z,10.30
2018-09-12T11:39:27.782Z,8.00
2018-09-12T11:41:56.862Z,7.77
2018-09-12T11:44:25.974Z,7.53
2018-09-12T11:46:55.363Z,8.50
2018-09-12T11:49:24.887Z,10.83
2018-09-12T11:51:53.985Z,11.27
2018-09-12T11:54:23.105Z,11.10
2018-09-12T11:56:52.222Z,8.20
2018-09-12T11:59:21.313Z,7.50
2018-09-12T12:01:50.410Z,8.80
2018-09-12T12:04:20.294Z,7.60
2018-09-12T12:06:49.425Z,7.20
2018-09-12T12:09:18.509Z,11.30
2018-09-12T12:11:47.662Z,8.47
2018-09-12T12:14:16.873Z,11.70
2018-09-12T12:16:46.144Z,8.67
2018-09-12T12:19:15.234Z,8.10
2018-09-12T12:21:44.333Z,11.40
2018-09-12T12:24:13.419Z,9.40
2018-09-12T12:26:42.561Z,11.60
2018-09-12T12:29:11.639Z,7.47
2018-09-12T12:31:40.731Z,9.60
2018-09-12T12:34:09.850Z,8.97
2018-09-12T12:36:38.962Z,9.17
2018-09-12T12:39:09.866Z,6.50
2018-09-12T12:41:38.962Z,7.77
2018-09-12T12:44:08.618Z,11.37
2018-09-12T12:46:37.689Z,10.73
2018-09-12T12:49:07.611Z,7.73
2018-09-12T12:51:37.353Z,9.00
2018-09-12T12:54:06.481Z,14.77
2018-09-12T12:56:35.578Z,14.23
2018-09-12T12:59:05.734Z,11.57
2018-09-12T13:01:34.838Z,9.30
2018-09-12T13:04:04.583Z,10.70
2018-09-12T13:06:33.724Z,9.13
2018-09-12T13:09:02.893Z,7.00
2018-09-12T13:11:32.259Z,19.30
2018-09-12T13:14:01.541Z,11.43
2018-09-12T13:16:30.760Z,8.80
2018-09-12T13:19:00.071Z,11.17
2018-09-12T13:21:29.812Z,10.83
2018-09-12T13:23:58.886Z,9.03
2018-09-12T13:26:28.038Z,9.43
2018-09-12T13:28:57.141Z,7.03
2018-09-12T13:31:26.279Z,16.53
2018-09-12T13:33:55.447Z,7.90
2018-09-12T13:36:24.545Z,8.50
2018-09-12T13:38:53.770Z,7.73
2018-09-12T13:41:22.956Z,7.70
2018-09-12T13:43:52.090Z,6.40
2018-09-12T13:46:21.219Z,8.47
2018-09-12T13:48:50.451Z,7.03
2018-09-12T13:51:19.590Z,7.60
2018-09-12T13:53:48.625Z,7.87
2018-09-12T13:56:18.066Z,7.00
2018-09-12T13:58:52.854Z,6.47
2018-09-12T14:01:22.245Z,5.57
2018-09-12T14:03:51.347Z,6.67
2018-09-12T14:06:20.443Z,6.10
2018-09-12T14:08:49.672Z,6.23
2018-09-12T14:11:18.738Z,9.47
2018-09-12T14:13:47.918Z,7.80
2018-09-12T14:16:17.173Z,7.47
2018-09-12T14:18:46.324Z,8.33
2018-09-12T14:21:15.534Z,7.53
2018-09-12T14:23:44.901Z,6.60
2018-09-12T14:26:14.002Z,8.30
2018-09-12T14:28:43.114Z,7.40
2018-09-12T14:31:12.494Z,6.33
2018-09-12T14:33:41.614Z,12.20
2018-09-12T14:36:11.117Z,9.77
2018-09-12T14:38:41.632Z,8.07
2018-09-12T14:41:10.727Z,10.20
2018-09-12T14:43:39.874Z,6.27
2018-09-12T14:46:09.165Z,14.67
2018-09-12T14:48:38.283Z,11.40
2018-09-12T14:51:07.626Z,7.47
2018-09-12T14:53:36.769Z,7.37
2018-09-12T14:56:06.250Z,9.13
2018-09-12T14:58:34.979Z,10.17
2018-09-12T15:01:04.126Z,6.70
2018-09-12T15:03:33.908Z,8.53
2018-09-12T15:06:03.011Z,9.87
2018-09-12T15:08:32.373Z,7.10
2018-09-12T15:11:01.488Z,9.53
2018-09-12T15:13:31.125Z,7.60
2018-09-12T15:16:00.301Z,7.30
2018-09-12T15:18:29.409Z,10.90
2018-09-12T15:20:59.290Z,8.00
2018-09-12T15:23:28.463Z,12.40
2018-09-12T15:25:58.089Z,10.33
2018-09-12T15:28:27.234Z,6.80
2018-09-12T15:30:56.512Z,8.43
2018-09-12T15:33:25.814Z,10.20
2018-09-12T15:35:55.750Z,9.83
2018-09-12T15:38:24.930Z,6.60
2018-09-12T15:40:54.698Z,12.53
2018-09-12T15:43:23.818Z,5.87
2018-09-12T15:45:52.955Z,10.13
2018-09-12T15:48:22.058Z,6.67
2018-09-12T15:50:51.152Z,10.43
2018-09-12T15:53:20.253Z,12.70
2018-09-12T15:55:49.506Z,9.57
2018-09-12T15:58:18.737Z,8.77
2018-09-12T16:00:47.974Z,7.70
2018-09-12T16:03:17.169Z,7.83
2018-09-12T16:05:46.447Z,7.00
2018-09-12T16:08:15.869Z,7.90
2018-09-12T16:10:45.455Z,14.20
2018-09-12T16:13:15.298Z,6.40
2018-09-12T16:15:44.475Z,7.53
2018-09-12T16:18:14.126Z,9.67
2018-09-12T16:20:43.391Z,7.97
2018-09-12T16:23:12.620Z,6.67
2018-09-12T16:25:41.782Z,7.93
2018-09-12T16:28:11.147Z,7.07
2018-09-12T16:30:40.343Z,7.43
2018-09-12T16:33:09.561Z,6.83
2018-09-12T16:35:38.761Z,6.80
2018-09-12T16:38:07.959Z,8.43
2018-09-12T16:40:37.222Z,6.70
2018-09-12T16:43:06.951Z,9.23
2018-09-12T16:45:36.157Z,9.03
2018-09-12T16:48:05.458Z,8.53
2018-09-12T16:50:34.138Z,12.30
2018-09-12T16:53:03.228Z,14.73
2018-09-12T16:55:32.355Z,10.70
2018-09-12T16:58:01.264Z,10.63
2018-09-12T17:00:30.350Z,9.50
2018-09-12T17:02:59.669Z,8.57
2018-09-12T17:05:29.353Z,9.27
2018-09-12T17:07:58.898Z,10.53
2018-09-12T17:10:27.998Z,9.00
2018-09-12T17:12:58.578Z,28.03
2018-09-12T17:15:27.873Z,7.60
2018-09-12T17:17:58.357Z,11.00
2018-09-12T17:20:27.899Z,14.23
2018-09-12T17:22:57.024Z,12.97
2018-09-12T17:25:26.125Z,12.80
2018-09-12T17:27:55.778Z,10.70
2018-09-12T17:30:24.939Z,11.00
2018-09-12T17:32:54.395Z,12.60
2018-09-12T17:35:23.508Z,13.83
2018-09-12T17:37:52.673Z,13.17
2018-09-12T17:40:21.809Z,17.40
2018-09-12T17:42:50.949Z,9.70
2018-09-12T17:45:20.098Z,11.33
2018-09-12T17:47:49.338Z,10.10
2018-09-12T17:50:18.902Z,11.27
2018-09-12T17:52:48.022Z,10.67
2018-09-12T17:55:17.137Z,13.50
2018-09-12T17:57:47.046Z,13.30
2018-09-12T18:00:17.038Z,10.20
2018-09-12T18:02:46.775Z,12.97
2018-09-12T18:05:16.293Z,14.60
2018-09-12T18:07:45.618Z,10.33
2018-09-12T18:10:14.838Z,11.53
2018-09-12T18:12:44.437Z,7.60
2018-09-12T18:15:13.814Z,10.00
2018-09-12T18:17:42.961Z,9.27
2018-09-12T18:20:12.063Z,11.23
2018-09-12T18:22:41.616Z,11.07
2018-09-12T18:25:10.781Z,12.33
2018-09-12T18:27:42.318Z,11.40
2018-09-12T18:30:12.407Z,10.97
2018-09-12T18:32:41.725Z,11.27
2018-09-12T18:35:11.604Z,9.50
2018-09-12T18:37:41.221Z,10.47
2018-09-12T18:40:09.914Z,10.43
2018-09-12T18:42:39.714Z,14.67
2018-09-12T18:45:08.951Z,12.90
2018-09-12T18:47:38.060Z,13.67
2018-09-12T18:50:07.258Z,16.57
2018-09-12T18:52:36.496Z,13.07
2018-09-12T18:55:05.633Z,9.50
2018-09-12T18:57:34.722Z,13.53
2018-09-12T19:00:04.206Z,16.17
2018-09-12T19:02:33.694Z,11.27
2018-09-12T19:05:02.417Z,11.73
2018-09-12T19:07:31.583Z,13.87
2018-09-12T19:10:00.733Z,13.33
2018-09-12T19:12:29.858Z,12.50
2018-09-12T19:14:58.961Z,14.10
2018-09-12T19:17:28.165Z,11.10
2018-09-12T19:19:57.295Z,13.53
2018-09-12T19:22:26.685Z,9.60
2018-09-12T19:24:55.446Z,10.03
2018-09-12T19:27:24.725Z,13.73
2018-09-12T19:29:54.005Z,14.57
2018-09-12T19:32:23.413Z,11.80
2018-09-12T19:34:53.057Z,10.93
2018-09-12T19:37:21.862Z,14.10
2018-09-12T19:39:50.989Z,12.40
2018-09-12T19:42:20.091Z,12.63
2018-09-12T19:44:49.230Z,11.80
2018-09-12T19:47:18.058Z,21.03
2018-09-12T19:49:46.905Z,12.00
2018-09-12T19:52:16.173Z,10.07
2018-09-12T19:54:45.595Z,13.37
2018-09-12T19:57:14.703Z,13.00
2018-09-12T19:59:43.997Z,14.07
2018-09-12T20:02:13.362Z,14.07
2018-09-12T20:04:42.818Z,9.60
2018-09-12T20:07:11.940Z,13.63
2018-09-12T20:09:41.026Z,13.53
2018-09-12T20:12:09.976Z,14.80
2018-09-12T20:14:39.119Z,13.37
2018-09-12T20:17:08.281Z,12.30
2018-09-12T20:19:37.386Z,17.30
2018-09-12T20:22:07.917Z,12.23
2018-09-12T20:24:37.147Z,18.17
2018-09-12T20:27:06.558Z,14.07
2018-09-12T20:29:35.658Z,13.80
2018-09-12T20:32:04.757Z,16.60
2018-09-12T20:34:33.913Z,9.47
2018-09-12T20:37:03.236Z,12.63
2018-09-12T20:39:32.492Z,13.00
2018-09-12T20:42:01.322Z,11.00
2018-09-12T20:44:30.249Z,9.60
2018-09-12T20:46:59.704Z,10.80
2018-09-12T20:49:28.858Z,15.37
2018-09-12T20:52:00.253Z,19.00
2018-09-12T20:54:29.562Z,17.23
2018-09-12T20:56:58.751Z,15.57
2018-09-12T20:59:27.874Z,17.23
2018-09-12T21:01:57.306Z,13.50
2018-09-12T21:04:26.070Z,12.53
2018-09-12T21:06:55.578Z,16.07
2018-09-12T21:09:24.590Z,14.77
2018-09-12T21:11:53.742Z,16.30
2018-09-12T21:14:23.244Z,20.37
2018-09-12T21:16:52.441Z,23.97
2018-09-12T21:19:21.550Z,18.87
2018-09-12T21:21:55.501Z,18.10
2018-09-12T21:24:26.033Z,20.83
2018-09-12T21:27:02.092Z,20.50
2018-09-12T21:29:34.036Z,20.20
2018-09-12T21:32:05.686Z,18.10
2018-09-12T21:34:44.049Z,15.97
2018-09-12T21:37:13.263Z,23.60
2018-09-12T21:39:42.516Z,22.40
2018-09-12T21:42:11.638Z,22.67
2018-09-12T21:44:40.742Z,16.83
2018-09-12T21:47:09.957Z,17.97
2018-09-12T21:49:39.134Z,17.57
2018-09-12T21:52:08.282Z,12.37
2018-09-12T21:54:37.634Z,17.67
2018-09-12T21:57:06.772Z,20.00
2018-09-12T21:59:35.975Z,16.23
2018-09-12T22:02:05.887Z,18.37
2018-09-12T22:04:35.034Z,17.30
2018-09-12T22:07:04.162Z,18.80
2018-09-12T22:09:33.332Z,23.80
2018-09-12T22:12:02.635Z,20.93
2018-09-12T22:14:31.851Z,19.83
2018-09-12T22:17:01.298Z,18.30
2018-09-12T22:19:30.564Z,16.20
2018-09-12T22:21:59.834Z,20.20
2018-09-12T22:24:29.487Z,21.70
2018-09-12T22:26:59.322Z,18.93
2018-09-12T22:29:28.900Z,18.83
2018-09-12T22:31:58.114Z,21.53
2018-09-12T22:34:27.337Z,22.93
2018-09-12T22:36:57.574Z,31.13
2018-09-12T22:39:27.438Z,26.33
2018-09-12T22:41:57.283Z,25.13
2018-09-12T22:44:27.075Z,26.80
2018-09-12T22:46:56.314Z,26.93
2018-09-12T22:49:25.621Z,20.80
2018-09-12T22:51:54.949Z,28.60
2018-09-12T22:54:24.300Z,29.23
2018-09-12T22:56:54.033Z,32.30
2018-09-12T22:59:23.413Z,28.60
2018-09-12T23:01:53.017Z,27.27
2018-09-12T23:04:22.318Z,26.23
2018-09-12T23:06:51.593Z,30.20
2018-09-12T23:09:20.965Z,21.77
2018-09-12T23:11:50.248Z,26.80
2018-09-12T23:14:19.486Z,28.23
2018-09-12T23:16:48.773Z,29.57
2018-09-12T23:19:17.983Z,27.27
2018-09-12T23:21:47.210Z,24.93
2018-09-12T23:24:16.569Z,27.40
2018-09-12T23:26:46.209Z,27.70
2018-09-12T23:29:15.482Z,27.50
2018-09-12T23:31:44.731Z,29.30
2018-09-12T23:34:14.128Z,22.93
2018-09-12T23:36:43.363Z,24.43
2018-09-12T23:39:14.250Z,27.10
2018-09-12T23:41:43.486Z,30.03
2018-09-12T23:44:12.603Z,33.27
2018-09-12T23:46:41.759Z,31.40
2018-09-12T23:49:10.926Z,40.30
2018-09-12T23:51:40.105Z,39.07
2018-09-12T23:54:09.234Z,33.80
2018-09-12T23:56:38.409Z,46.33
2018-09-12T23:59:07.578Z,48.37
